createdAt,value
2023-05-24T00:01:25.784Z,12.90
2023-05-24T00:03:54.375Z,10.38
2023-05-24T00:06:23.152Z,13.75
2023-05-24T00:08:52.727Z,10.77
2023-05-24T00:11:21.041Z,11.32
2023-05-24T00:13:51.029Z,12.75
2023-05-24T00:16:19.083Z,15.48
2023-05-24T00:18:47.942Z,11.95
2023-05-24T00:21:16.291Z,11.15
2023-05-24T00:23:44.618Z,12.02
2023-05-24T00:26:18.890Z,9.65
2023-05-24T00:28:47.644Z,10.52
2023-05-24T00:31:16.665Z,14.38
2023-05-24T00:33:44.920Z,12.75
2023-05-24T00:36:13.554Z,10.48
2023-05-24T00:38:43.495Z,13.07
2023-05-24T00:41:15.649Z,13.07
2023-05-24T00:43:47.028Z,13.13
2023-05-24T00:46:20.906Z,13.68
2023-05-24T00:48:52.234Z,10.10
2023-05-24T00:51:20.678Z,13.98
2023-05-24T00:53:50.776Z,6.53
2023-05-24T00:56:24.527Z,15.05
2023-05-24T00:58:56.156Z,12.00
2023-05-24T01:01:31.168Z,10.63
2023-05-24T01:04:02.760Z,13.13
2023-05-24T01:06:53.756Z,13.52
2023-05-24T01:09:30.433Z,12.50
2023-05-24T01:12:09.124Z,11.07
2023-05-24T01:14:44.752Z,10.15
2023-05-24T01:17:20.111Z,12.63
2023-05-24T01:20:00.141Z,13.45
2023-05-24T01:22:59.947Z,13.05
2023-05-24T01:25:46.723Z,10.88
2023-05-24T01:28:20.001Z,14.43
2023-05-24T01:30:50.051Z,13.63
2023-05-24T01:33:21.927Z,9.30
2023-05-24T01:35:52.662Z,11.55
2023-05-24T01:38:20.785Z,15.90
2023-05-24T01:40:53.960Z,10.25
2023-05-24T01:43:33.848Z,12.05
2023-05-24T01:46:09.922Z,11.80
2023-05-24T01:48:47.350Z,12.57
2023-05-24T01:51:22.945Z,12.02
2023-05-24T01:53:55.366Z,11.73
2023-05-24T01:56:30.170Z,8.80
2023-05-24T01:59:05.863Z,13.45
2023-05-24T02:01:38.567Z,10.98
2023-05-24T02:04:07.412Z,13.32
2023-05-24T02:06:36.003Z,10.30
2023-05-24T02:09:04.224Z,15.30
2023-05-24T02:11:35.065Z,9.95
2023-05-24T02:14:04.496Z,10.48
2023-05-24T02:16:42.706Z,13.07
2023-05-24T02:19:12.256Z,13.38
2023-05-24T02:21:41.231Z,9.65
2023-05-24T02:24:12.633Z,11.15
2023-05-24T02:26:40.800Z,17.25
2023-05-24T02:29:12.556Z,10.18
2023-05-24T02:31:40.894Z,15.18
2023-05-24T02:34:11.412Z,12.27
2023-05-24T02:36:39.458Z,16.48
2023-05-24T02:39:13.883Z,13.75
2023-05-24T02:41:42.202Z,11.18
2023-05-24T02:44:11.866Z,10.43
2023-05-24T02:46:40.326Z,12.77
2023-05-24T02:49:11.747Z,14.40
2023-05-24T02:51:39.916Z,11.90
2023-05-24T02:54:10.955Z,13.50
2023-05-24T02:56:41.021Z,8.85
2023-05-24T02:59:09.145Z,12.52
2023-05-24T03:01:40.746Z,13.13
2023-05-24T03:04:10.819Z,18.10
2023-05-24T03:06:39.143Z,17.00
2023-05-24T03:09:12.154Z,17.58
2023-05-24T03:11:43.238Z,14.85
2023-05-24T03:14:11.460Z,15.13
2023-05-24T03:16:44.348Z,12.52
2023-05-24T03:19:15.421Z,13.88
2023-05-24T03:21:45.921Z,16.95
2023-05-24T03:24:14.274Z,16.13
2023-05-24T03:26:42.501Z,12.77
2023-05-24T03:29:12.630Z,13.77
2023-05-24T03:31:45.126Z,15.68
2023-05-24T03:34:13.394Z,19.65
2023-05-24T03:36:45.427Z,19.42
2023-05-24T03:39:16.566Z,12.75
2023-05-24T03:41:47.640Z,15.13
2023-05-24T03:44:21.383Z,15.57
2023-05-24T03:46:50.912Z,14.27
2023-05-24T03:49:21.058Z,16.42
2023-05-24T03:51:51.876Z,14.32
2023-05-24T03:54:20.056Z,15.40
2023-05-24T03:56:48.222Z,14.10
2023-05-24T03:59:21.280Z,18.13
2023-05-24T04:01:50.966Z,13.27
2023-05-24T04:04:25.458Z,15.52
2023-05-24T04:06:53.980Z,14.63
2023-05-24T04:09:23.815Z,16.63
2023-05-24T04:11:52.975Z,17.92
2023-05-24T04:14:21.886Z,20.55
2023-05-24T04:16:57.583Z,15.65
2023-05-24T04:19:25.825Z,13.57
2023-05-24T04:21:56.806Z,17.88
2023-05-24T04:24:28.012Z,16.58
2023-05-24T04:26:58.290Z,15.25
2023-05-24T04:29:29.480Z,16.98
2023-05-24T04:32:00.893Z,14.75
2023-05-24T04:34:33.846Z,14.57
2023-05-24T04:37:05.294Z,13.52
2023-05-24T04:39:36.658Z,12.27
2023-05-24T04:42:08.535Z,12.27
2023-05-24T04:44:39.430Z,12.73
2023-05-24T04:47:09.819Z,9.30
2023-05-24T04:49:40.588Z,11.48
2023-05-24T04:52:09.312Z,10.15
2023-05-24T04:54:39.826Z,11.63
2023-05-24T04:57:11.217Z,17.63
2023-05-24T04:59:39.465Z,12.85
2023-05-24T05:02:15.669Z,18.30
2023-05-24T05:04:46.439Z,15.73
2023-05-24T05:07:17.416Z,14.93
2023-05-24T05:09:53.999Z,8.82
2023-05-24T05:12:24.670Z,17.23
2023-05-24T05:14:52.686Z,15.50
2023-05-24T05:17:27.170Z,17.92
2023-05-24T05:19:55.500Z,15.70
2023-05-24T05:22:23.643Z,16.15
2023-05-24T05:24:57.154Z,19.73
2023-05-24T05:27:27.753Z,15.13
2023-05-24T05:29:55.888Z,23.55
2023-05-24T05:32:27.859Z,20.95
2023-05-24T05:34:58.122Z,20.17
2023-05-24T05:37:29.969Z,17.42
2023-05-24T05:40:01.132Z,19.55
2023-05-24T05:42:33.859Z,18.20
2023-05-24T05:45:01.933Z,16.08
2023-05-24T05:47:33.814Z,13.85
2023-05-24T05:50:01.941Z,15.65
2023-05-24T05:52:36.144Z,13.57
2023-05-24T05:55:09.810Z,19.55
2023-05-24T05:57:37.988Z,14.23
2023-05-24T06:00:07.240Z,15.73
2023-05-24T06:02:41.811Z,15.07
2023-05-24T06:05:15.352Z,17.67
2023-05-24T06:07:50.025Z,14.02
2023-05-24T06:10:30.490Z,13.30
2023-05-24T06:13:10.435Z,17.02
2023-05-24T06:15:38.561Z,17.08
2023-05-24T06:18:08.536Z,17.02
2023-05-24T06:20:37.067Z,23.70
2023-05-24T06:23:08.597Z,20.10
2023-05-24T06:25:43.798Z,22.65
2023-05-24T06:28:15.363Z,17.42
2023-05-24T06:30:46.684Z,17.38
2023-05-24T06:33:25.344Z,20.77
2023-05-24T06:35:57.388Z,20.95
2023-05-24T06:38:25.705Z,18.15
2023-05-24T06:40:55.175Z,17.63
2023-05-24T06:43:26.000Z,18.75
2023-05-24T06:45:54.241Z,18.65
2023-05-24T06:48:30.838Z,18.70
2023-05-24T06:51:00.960Z,16.85
2023-05-24T06:53:31.842Z,20.58
2023-05-24T06:56:00.012Z,17.20
2023-05-24T06:58:28.229Z,19.50
2023-05-24T07:00:59.086Z,16.90
2023-05-24T07:03:31.132Z,20.58
2023-05-24T07:06:01.070Z,22.58
2023-05-24T07:08:38.669Z,19.60
2023-05-24T07:11:07.966Z,20.98
2023-05-24T07:13:36.202Z,16.40
2023-05-24T07:16:07.969Z,17.65
2023-05-24T07:18:36.306Z,16.92
2023-05-24T07:21:08.844Z,19.42
2023-05-24T07:23:39.530Z,18.38
2023-05-24T07:26:09.091Z,20.08
2023-05-24T07:28:37.982Z,20.20
2023-05-24T07:31:19.428Z,14.77
2023-05-24T07:33:47.723Z,17.63
2023-05-24T07:36:20.971Z,24.83
2023-05-24T07:38:51.984Z,18.75
2023-05-24T07:41:31.026Z,16.92
2023-05-24T07:44:03.995Z,20.98
2023-05-24T07:46:33.459Z,17.35
2023-05-24T07:49:01.685Z,19.25
2023-05-24T07:51:33.936Z,23.75
2023-05-24T07:54:02.308Z,14.98
2023-05-24T07:56:35.543Z,16.17
2023-05-24T07:59:04.868Z,13.27
2023-05-24T08:01:36.875Z,17.30
2023-05-24T08:04:05.495Z,12.85
2023-05-24T08:06:37.379Z,17.13
2023-05-24T08:09:08.912Z,15.98
2023-05-24T08:11:50.903Z,15.27
2023-05-24T08:14:25.556Z,16.10
2023-05-24T08:16:56.224Z,13.25
2023-05-24T08:19:24.544Z,17.63
2023-05-24T08:22:07.165Z,11.73
2023-05-24T08:24:37.776Z,14.88
2023-05-24T08:27:08.829Z,18.80
2023-05-24T08:29:38.386Z,12.32
2023-05-24T08:32:18.029Z,12.35
2023-05-24T08:34:46.298Z,14.27
2023-05-24T08:37:22.289Z,10.57
2023-05-24T08:39:53.085Z,14.38
2023-05-24T08:42:23.935Z,12.10
2023-05-24T08:44:54.589Z,13.82
2023-05-24T08:47:23.139Z,14.18
2023-05-24T08:49:55.091Z,14.68
2023-05-24T08:52:25.808Z,16.48
2023-05-24T08:54:56.971Z,15.00
2023-05-24T08:57:28.009Z,12.15
2023-05-24T08:59:59.276Z,10.65
2023-05-24T09:02:29.823Z,10.57
2023-05-24T09:05:01.741Z,12.43
2023-05-24T09:07:34.434Z,15.93
2023-05-24T09:10:12.253Z,13.07
2023-05-24T09:12:41.817Z,10.23
2023-05-24T09:15:16.711Z,8.80
2023-05-24T09:17:47.470Z,10.25
2023-05-24T09:20:18.923Z,12.38
2023-05-24T09:22:53.352Z,14.48
2023-05-24T09:25:31.802Z,11.43
2023-05-24T09:28:17.182Z,10.93
2023-05-24T09:31:07.826Z,7.97
2023-05-24T09:33:42.419Z,9.30
2023-05-24T09:36:13.393Z,12.43
2023-05-24T09:38:44.196Z,13.60
2023-05-24T09:41:12.993Z,15.13
2023-05-24T09:43:52.247Z,6.25
2023-05-24T09:46:28.316Z,8.77
2023-05-24T09:49:07.040Z,9.68
2023-05-24T09:51:45.943Z,9.90
2023-05-24T09:54:19.924Z,13.68
2023-05-24T09:56:51.088Z,14.32
2023-05-24T09:59:24.765Z,12.88
2023-05-24T10:02:24.859Z,15.68
2023-05-24T10:05:03.779Z,15.45
2023-05-24T10:07:34.161Z,12.00
2023-05-24T10:10:08.235Z,13.93
2023-05-24T10:12:47.996Z,7.82
2023-05-24T10:15:19.076Z,9.25
2023-05-24T10:17:47.319Z,9.02
2023-05-24T10:20:19.040Z,10.30
2023-05-24T10:22:48.608Z,14.15
2023-05-24T10:25:25.773Z,10.20
2023-05-24T10:27:56.573Z,10.15
2023-05-24T10:30:32.897Z,9.90
2023-05-24T10:33:05.746Z,6.68
2023-05-24T10:35:38.150Z,8.55
2023-05-24T10:38:17.098Z,8.60
2023-05-24T10:40:47.903Z,6.68
2023-05-24T10:43:19.577Z,7.88
2023-05-24T10:45:53.930Z,7.70
2023-05-24T10:48:59.646Z,7.00
2023-05-24T10:51:38.600Z,9.45
2023-05-24T10:54:19.386Z,5.68
2023-05-24T10:56:57.070Z,7.95
2023-05-24T10:59:32.798Z,7.93
2023-05-24T11:02:06.134Z,4.95
2023-05-24T11:04:39.783Z,7.15
2023-05-24T11:07:23.378Z,5.55
2023-05-24T11:10:00.279Z,7.18
2023-05-24T11:12:38.660Z,6.68
2023-05-24T11:15:28.113Z,6.65
2023-05-24T11:18:24.670Z,7.30
2023-05-24T11:21:00.625Z,6.55
2023-05-24T11:23:32.579Z,5.85
2023-05-24T11:26:05.311Z,8.77
2023-05-24T11:28:41.409Z,6.60
2023-05-24T11:31:25.911Z,5.05
2023-05-24T11:34:29.182Z,7.10
2023-05-24T11:37:06.360Z,4.75
2023-05-24T11:39:46.584Z,5.00
2023-05-24T11:42:32.288Z,7.78
2023-05-24T11:45:12.536Z,7.28
2023-05-24T11:48:15.293Z,5.22
2023-05-24T11:51:33.374Z,7.45
2023-05-24T11:54:36.482Z,6.88
2023-05-24T11:57:10.419Z,7.50
2023-05-24T11:59:46.418Z,6.57
2023-05-24T12:02:50.740Z,5.95
2023-05-24T12:05:52.756Z,6.70
2023-05-24T12:08:25.926Z,6.53
2023-05-24T12:11:10.256Z,6.25
2023-05-24T12:13:47.535Z,6.60
2023-05-24T12:17:04.678Z,7.28
2023-05-24T12:19:56.827Z,6.15
2023-05-24T12:22:33.404Z,7.47
2023-05-24T12:25:09.561Z,6.00
2023-05-24T12:27:50.617Z,8.13
2023-05-24T12:30:27.228Z,4.63
2023-05-24T12:33:02.149Z,7.03
2023-05-24T12:35:56.794Z,5.20
2023-05-24T12:39:06.003Z,5.25
2023-05-24T12:41:40.740Z,7.50
2023-05-24T12:44:25.007Z,8.02
2023-05-24T12:47:14.668Z,5.15
2023-05-24T12:50:02.961Z,8.15
2023-05-24T12:52:42.866Z,8.68
2023-05-24T12:55:33.520Z,6.70
2023-05-24T12:58:10.094Z,8.75
2023-05-24T13:00:45.110Z,6.25
2023-05-24T13:03:40.663Z,5.35
2023-05-24T13:06:44.637Z,6.05
2023-05-24T13:09:21.727Z,7.65
2023-05-24T13:12:02.163Z,7.72
2023-05-24T13:14:46.769Z,9.10
2023-05-24T13:17:24.606Z,7.45
2023-05-24T13:20:09.113Z,6.20
2023-05-24T13:22:56.359Z,5.43
2023-05-24T13:25:43.682Z,5.78
2023-05-24T13:28:24.001Z,6.15
2023-05-24T13:31:26.372Z,7.57
2023-05-24T13:34:03.262Z,6.15
2023-05-24T13:37:10.158Z,7.63
2023-05-24T13:39:51.243Z,7.28
2023-05-24T13:42:58.292Z,4.65
2023-05-24T13:45:49.097Z,5.32
2023-05-24T13:48:48.453Z,9.07
2023-05-24T13:51:29.984Z,7.22
2023-05-24T13:54:16.412Z,4.97
2023-05-24T13:56:58.631Z,5.75
2023-05-24T14:00:26.278Z,7.90
2023-05-24T14:02:54.353Z,4.85
2023-05-24T14:05:27.538Z,12.02
2023-05-24T14:07:57.345Z,10.35
2023-05-24T14:10:26.851Z,12.15
2023-05-24T14:13:12.732Z,10.93
2023-05-24T14:15:42.182Z,11.00
2023-05-24T14:18:10.270Z,11.00
2023-05-24T14:20:40.009Z,11.23
2023-05-24T14:23:08.586Z,12.93
2023-05-24T14:25:37.727Z,13.98
2023-05-24T14:28:06.330Z,11.57
2023-05-24T14:30:34.146Z,11.23
2023-05-24T14:33:02.382Z,10.63
2023-05-24T14:35:30.213Z,11.25
2023-05-24T14:37:57.986Z,9.13
2023-05-24T14:40:25.944Z,12.68
2023-05-24T14:42:55.306Z,12.60
2023-05-24T14:45:23.109Z,10.95
2023-05-24T14:47:50.917Z,9.18
2023-05-24T14:50:18.812Z,11.05
2023-05-24T14:52:46.592Z,9.07
2023-05-24T14:55:14.548Z,11.52
2023-05-24T14:57:42.706Z,11.10
2023-05-24T15:00:13.301Z,11.70
2023-05-24T15:04:13.014Z,13.77
2023-05-24T15:06:40.795Z,15.02
2023-05-24T15:09:08.571Z,12.40
2023-05-24T15:11:36.608Z,11.43
2023-05-24T15:14:04.458Z,16.02
2023-05-24T15:16:32.337Z,14.25
2023-05-24T15:19:00.118Z,15.93
2023-05-24T15:21:29.239Z,18.50
2023-05-24T15:23:57.019Z,14.60
2023-05-24T15:26:24.777Z,16.92
2023-05-24T15:28:52.558Z,16.42
2023-05-24T15:31:20.513Z,15.05
2023-05-24T15:33:48.435Z,17.15
2023-05-24T15:36:17.092Z,14.60
2023-05-24T15:38:46.273Z,16.38
2023-05-24T15:41:14.115Z,17.85
2023-05-24T15:43:41.882Z,13.65
2023-05-24T15:46:09.673Z,15.45
2023-05-24T15:48:37.625Z,15.75
2023-05-24T15:52:00.942Z,19.63
2023-05-24T15:53:56.488Z,12.20
2023-05-24T15:56:33.656Z,15.20
2023-05-24T15:59:01.452Z,19.42
2023-05-24T16:01:29.265Z,14.05
2023-05-24T16:03:57.103Z,17.20
2023-05-24T16:06:24.990Z,16.67
2023-05-24T16:08:52.814Z,14.25
2023-05-24T16:11:23.558Z,13.90
2023-05-24T16:13:53.392Z,15.65
2023-05-24T16:16:23.465Z,13.77
2023-05-24T16:19:07.412Z,12.38
2023-05-24T16:21:36.688Z,13.02
2023-05-24T16:24:05.290Z,10.63
2023-05-24T16:26:36.253Z,10.07
2023-05-24T16:29:04.346Z,12.48
2023-05-24T16:31:36.670Z,9.45
2023-05-24T16:34:08.938Z,12.18
2023-05-24T16:36:45.679Z,12.80
2023-05-24T16:39:17.432Z,9.23
2023-05-24T16:41:47.085Z,10.70
2023-05-24T16:44:18.126Z,9.18
2023-05-24T16:46:46.781Z,8.40
2023-05-24T16:49:19.641Z,9.82
2023-05-24T16:51:50.253Z,7.75
2023-05-24T16:54:18.377Z,9.15
2023-05-24T16:57:45.291Z,9.18
2023-05-24T17:00:20.538Z,10.48
2023-05-24T17:02:52.771Z,9.82
2023-05-24T17:05:23.857Z,7.95
2023-05-24T17:07:53.778Z,9.07
2023-05-24T17:10:21.988Z,11.07
2023-05-24T17:12:50.109Z,9.93
2023-05-24T17:15:27.236Z,6.68
2023-05-24T17:17:58.190Z,8.30
2023-05-24T17:20:28.819Z,10.27
2023-05-24T17:23:10.039Z,9.90
2023-05-24T17:25:39.319Z,7.45
2023-05-24T17:28:07.761Z,9.07
2023-05-24T17:30:37.970Z,7.88
2023-05-24T17:33:12.149Z,7.88
2023-05-24T17:35:41.748Z,9.25
2023-05-24T17:38:12.969Z,9.20
2023-05-24T17:40:45.223Z,7.88
2023-05-24T17:43:13.648Z,8.05
2023-05-24T17:45:45.116Z,7.32
2023-05-24T17:48:17.598Z,9.23
2023-05-24T17:50:47.598Z,8.88
2023-05-24T17:53:30.421Z,8.57
2023-05-24T17:56:01.317Z,8.30
2023-05-24T17:58:30.901Z,7.25
2023-05-24T18:01:17.438Z,6.63
2023-05-24T18:03:55.388Z,7.40
2023-05-24T18:06:27.294Z,8.75
2023-05-24T18:09:02.285Z,8.20
2023-05-24T18:11:30.320Z,7.95
2023-05-24T18:14:00.840Z,5.10
2023-05-24T18:16:32.578Z,6.78
2023-05-24T18:19:00.837Z,7.97
2023-05-24T18:21:28.969Z,6.93
2023-05-24T18:23:58.337Z,7.65
2023-05-24T18:26:31.740Z,5.68
2023-05-24T18:29:00.097Z,7.18
2023-05-24T18:31:30.491Z,6.43
2023-05-24T18:34:00.848Z,7.78
2023-05-24T18:36:33.007Z,6.72
2023-05-24T18:39:03.691Z,5.50
2023-05-24T18:41:32.170Z,4.82
2023-05-24T18:44:00.275Z,6.22
2023-05-24T18:46:29.877Z,8.32
2023-05-24T18:49:00.509Z,7.75
2023-05-24T18:51:29.458Z,8.65
2023-05-24T18:54:06.847Z,6.20
2023-05-24T18:56:38.359Z,5.43
2023-05-24T18:59:07.124Z,5.18
2023-05-24T19:01:37.729Z,6.25
2023-05-24T19:04:10.777Z,7.07
2023-05-24T19:06:39.403Z,7.07
2023-05-24T19:09:07.807Z,7.28
2023-05-24T19:11:38.058Z,5.78
2023-05-24T19:14:09.524Z,7.50
2023-05-24T19:16:56.106Z,7.45
2023-05-24T19:19:43.270Z,6.18
2023-05-24T19:22:28.214Z,5.55
2023-05-24T19:24:57.477Z,6.90
2023-05-24T19:27:28.961Z,8.82
2023-05-24T19:29:59.205Z,7.32
2023-05-24T19:32:30.781Z,7.80
2023-05-24T19:34:59.652Z,7.30
2023-05-24T19:37:27.977Z,7.85
2023-05-24T19:39:56.283Z,8.20
2023-05-24T19:42:24.849Z,8.25
2023-05-24T19:44:54.155Z,8.70
2023-05-24T19:47:52.785Z,6.97
2023-05-24T19:50:38.308Z,8.07
2023-05-24T19:53:39.849Z,8.20
2023-05-24T19:56:24.259Z,6.88
2023-05-24T19:59:14.071Z,6.40
2023-05-24T20:01:55.679Z,6.55
2023-05-24T20:04:28.397Z,7.10
2023-05-24T20:07:18.024Z,6.22
2023-05-24T20:09:46.806Z,6.15
2023-05-24T20:12:24.930Z,6.53
2023-05-24T20:14:53.068Z,4.85
2023-05-24T20:17:21.004Z,6.72
2023-05-24T20:19:53.286Z,5.10
2023-05-24T20:22:22.865Z,6.75
2023-05-24T20:24:51.229Z,6.03
2023-05-24T20:27:19.339Z,6.53
2023-05-24T20:29:47.797Z,5.90
2023-05-24T20:32:16.293Z,6.32
2023-05-24T20:34:44.251Z,6.32
2023-05-24T20:37:12.292Z,6.15
2023-05-24T20:39:41.668Z,6.15
2023-05-24T20:42:09.642Z,6.03
2023-05-24T20:44:37.643Z,6.18
2023-05-24T20:47:05.966Z,6.65
2023-05-24T20:49:36.713Z,6.35
2023-05-24T20:52:04.888Z,7.00
2023-05-24T20:54:32.836Z,5.68
2023-05-24T20:57:02.780Z,7.32
2023-05-24T20:59:31.053Z,7.28
2023-05-24T21:01:58.987Z,5.75
2023-05-24T21:04:27.209Z,7.15
2023-05-24T21:06:55.825Z,7.22
2023-05-24T21:09:23.900Z,4.30
2023-05-24T21:11:51.903Z,6.43
2023-05-24T21:14:21.316Z,6.93
2023-05-24T21:16:49.355Z,5.03
2023-05-24T21:19:17.403Z,6.60
2023-05-24T21:21:45.463Z,6.70
2023-05-24T21:24:14.690Z,5.65
2023-05-24T21:26:42.681Z,5.35
2023-05-24T21:29:11.883Z,4.88
2023-05-24T21:31:41.387Z,6.70
2023-05-24T21:34:09.849Z,5.05
2023-05-24T21:36:38.414Z,4.85
2023-05-24T21:39:08.118Z,6.38
2023-05-24T21:41:37.176Z,5.05
2023-05-24T21:44:07.257Z,4.47
2023-05-24T21:46:36.275Z,5.90
2023-05-24T21:49:05.675Z,7.53
2023-05-24T21:51:33.670Z,5.85
2023-05-24T21:54:01.791Z,7.07
2023-05-24T21:56:29.914Z,6.95
2023-05-24T21:58:58.027Z,5.75
2023-05-24T22:01:28.213Z,7.10
2023-05-24T22:03:56.434Z,5.38
2023-05-24T22:06:26.271Z,5.85
2023-05-24T22:08:55.406Z,7.78
2023-05-24T22:11:23.656Z,5.53
2023-05-24T22:13:52.027Z,4.60
2023-05-24T22:16:20.090Z,7.13
2023-05-24T22:18:48.756Z,6.03
2023-05-24T22:21:18.635Z,5.15
2023-05-24T22:23:48.056Z,8.27
2023-05-24T22:26:17.118Z,7.15
2023-05-24T22:28:55.044Z,6.53
2023-05-24T22:31:24.640Z,4.90
2023-05-24T22:33:52.620Z,6.82
2023-05-24T22:36:20.919Z,6.57
2023-05-24T22:38:50.375Z,5.57
2023-05-24T22:41:18.301Z,6.72
2023-05-24T22:43:46.211Z,7.20
2023-05-24T22:46:14.183Z,6.25
2023-05-24T22:48:42.199Z,5.63
2023-05-24T22:51:12.032Z,5.10
2023-05-24T22:53:40.010Z,5.95
2023-05-24T22:56:10.499Z,4.35
2023-05-24T22:58:39.087Z,4.68
2023-05-24T23:01:07.223Z,6.15
2023-05-24T23:03:35.262Z,4.55
2023-05-24T23:06:04.434Z,6.38
2023-05-24T23:08:32.961Z,4.68
2023-05-24T23:11:01.062Z,5.18
2023-05-24T23:13:33.078Z,7.25
2023-05-24T23:16:01.240Z,6.50
2023-05-24T23:18:29.269Z,4.05
2023-05-24T23:20:57.178Z,5.13
2023-05-24T23:23:25.768Z,5.95
2023-05-24T23:25:54.217Z,6.40
2023-05-24T23:28:22.403Z,4.82
2023-05-24T23:30:51.700Z,5.20
2023-05-24T23:33:19.675Z,5.40
2023-05-24T23:35:47.664Z,5.65
2023-05-24T23:38:15.852Z,5.88
2023-05-24T23:40:43.816Z,5.60
2023-05-24T23:43:11.722Z,3.90
2023-05-24T23:45:39.608Z,5.05
2023-05-24T23:48:09.027Z,4.88
2023-05-24T23:50:50.258Z,5.13
2023-05-24T23:53:21.193Z,5.55
2023-05-24T23:55:49.118Z,5.95
2023-05-24T23:58:17.103Z,5.85
